Terminal Aerodrome Forecast
Issued by NWS St Louis, MO

Home | Current Version | Previous Version | Graphics & Text | Print | Product List | Glossary On
Versions: 1 2 3 4 5 6 7 8 9 10 11 12 13 14 15 16 17 18 19 20 21 22 23 24 25 26 27 28
124
FTUS43 KLSX 122118 AAA
TAFSTL
TAF AMD
KSTL 122118Z 1221/1324 33013G23KT P6SM SCT025 BKN250
      TEMPO 1222/1224 BKN025
     FM130000 34009KT P6SM SCT250
     FM131600 36006KT P6SM SCT015 BKN100=

USA.gov is the U.S. government's official web portal to all federal, state and local government web resources and services.